Time;durP1;ratioP1;P1;durP2;ratioP2;P2;SDS_P1;SDS_P2;PMS_P1;PMS_P2;Temp;Humidity;BMP_temperature;BMP_pressure;BME280_temperature;BME280_humidity;BME280_pressure;Samples;Min_cycle;Max_cycle;Signal;HPM_P1;HPM_P2
2023/03/01 00:01:25;;;;;;;26.15;24.25;;;;;;;;;;5138076;27;20231;-90
2023/03/01 00:03:53;;;;;;;27.25;25.52;;;;;;;;;;5138719;27;20206;-90
2023/03/01 00:06:20;;;;;;;27.20;25.30;;;;;;;;;;5138407;27;20274;-90
2023/03/01 00:08:48;;;;;;;27.05;25.25;;;;;;;;;;5138804;27;20266;-89
2023/03/01 00:11:16;;;;;;;25.77;23.95;;;;;;;;;;5138293;27;20190;-90
2023/03/01 00:13:45;;;;;;;27.25;25.15;;;;;;;;;;5137918;27;20211;-89
2023/03/01 00:16:14;;;;;;;26.50;24.55;;;;;;;;;;5138590;27;20228;-89
2023/03/01 00:18:41;;;;;;;26.17;24.20;;;;;;;;;;5138391;27;20199;-89
2023/03/01 00:21:08;;;;;;;25.08;23.48;;;;;;;;;;5139200;27;20209;-89
2023/03/01 00:23:36;;;;;;;25.58;23.85;;;;;;;;;;5137693;27;20224;-89
2023/03/01 00:26:03;;;;;;;25.60;23.90;;;;;;;;;;5137621;27;20693;-89
2023/03/01 00:28:30;;;;;;;24.88;23.38;;;;;;;;;;5138082;27;20226;-90
2023/03/01 00:31:03;;;;;;;25.63;24.13;;;;;;;;;;5138037;27;20250;-90
2023/03/01 00:33:30;;;;;;;25.45;23.58;;;;;;;;;;5137434;27;20586;-89
2023/03/01 00:35:59;;;;;;;25.73;23.92;;;;;;;;;;5138132;27;20278;-89
2023/03/01 00:38:26;;;;;;;25.13;23.40;;;;;;;;;;5138073;27;20261;-90
2023/03/01 00:40:53;;;;;;;25.42;23.83;;;;;;;;;;5138013;27;20287;-90
2023/03/01 00:43:20;;;;;;;25.20;23.63;;;;;;;;;;5136780;27;20262;-89
2023/03/01 00:45:47;;;;;;;25.52;23.80;;;;;;;;;;5137826;27;20217;-90
2023/03/01 00:48:16;;;;;;;24.98;23.38;;;;;;;;;;5137518;27;20270;-90
2023/03/01 00:50:43;;;;;;;25.17;23.58;;;;;;;;;;5137545;27;20206;-89
2023/03/01 00:53:10;;;;;;;26.88;25.17;;;;;;;;;;5136407;27;20199;-89
2023/03/01 00:55:37;;;;;;;26.27;24.55;;;;;;;;;;5137186;27;20225;-89
2023/03/01 00:58:04;;;;;;;26.88;25.20;;;;;;;;;;5137866;27;20221;-89
2023/03/01 01:00:31;;;;;;;25.40;23.80;;;;;;;;;;5137426;27;20243;-89
2023/03/01 01:02:58;;;;;;;25.52;23.70;;;;;;;;;;5137476;27;20252;-88
2023/03/01 01:06:09;;;;;;;25.65;23.95;;;;;;;;;;5137924;27;20646;-89
2023/03/01 01:08:37;;;;;;;26.00;24.40;;;;;;;;;;5138224;27;20197;-89
2023/03/01 01:11:04;;;;;;;24.90;23.38;;;;;;;;;;5137523;27;20198;-89
2023/03/01 01:13:31;;;;;;;26.00;24.20;;;;;;;;;;5136246;27;20217;-89
2023/03/01 01:16:01;;;;;;;25.00;23.60;;;;;;;;;;5137347;27;20267;-89
2023/03/01 01:18:28;;;;;;;25.75;24.05;;;;;;;;;;5137080;27;20209;-89
2023/03/01 01:20:55;;;;;;;26.30;24.63;;;;;;;;;;5137107;27;20198;-89
2023/03/01 01:23:22;;;;;;;27.35;25.42;;;;;;;;;;5136974;27;20201;-88
2023/03/01 01:25:52;;;;;;;25.52;23.92;;;;;;;;;;5136651;27;20214;-89
2023/03/01 01:28:19;;;;;;;25.83;24.23;;;;;;;;;;5137071;27;20222;-89
2023/03/01 01:30:46;;;;;;;25.90;24.00;;;;;;;;;;5137044;27;20208;-89
2023/03/01 01:33:13;;;;;;;25.52;23.90;;;;;;;;;;5136338;27;20201;-89
2023/03/01 01:35:40;;;;;;;24.20;22.70;;;;;;;;;;5136783;27;20282;-89
2023/03/01 01:38:07;;;;;;;25.58;23.70;;;;;;;;;;5137021;27;20704;-89
2023/03/01 01:40:34;;;;;;;25.75;24.15;;;;;;;;;;5137099;27;20215;-89
2023/03/01 01:43:02;;;;;;;26.02;24.33;;;;;;;;;;5136094;27;20198;-90
2023/03/01 01:45:31;;;;;;;26.20;24.50;;;;;;;;;;5136612;27;20221;-89
2023/03/01 01:48:00;;;;;;;25.67;24.13;;;;;;;;;;5136227;27;20217;-89
2023/03/01 01:50:37;;;;;;;25.48;23.88;;;;;;;;;;5136820;27;20742;-89
2023/03/01 01:53:04;;;;;;;25.98;24.27;;;;;;;;;;5136076;27;20705;-89
2023/03/01 01:55:31;;;;;;;25.02;23.42;;;;;;;;;;5136288;27;20229;-89
2023/03/01 01:58:00;;;;;;;25.10;23.50;;;;;;;;;;5136830;27;20557;-89
2023/03/01 02:00:29;;;;;;;26.25;24.50;;;;;;;;;;5136758;27;20207;-89
2023/03/01 02:02:58;;;;;;;26.40;24.58;;;;;;;;;;5135557;27;20230;-89
2023/03/01 02:05:28;;;;;;;25.40;23.67;;;;;;;;;;5136249;27;20283;-89
2023/03/01 02:07:55;;;;;;;26.85;24.83;;;;;;;;;;5136489;27;20213;-89
2023/03/01 02:10:22;;;;;;;25.52;23.83;;;;;;;;;;5136539;27;20306;-89
2023/03/01 02:12:49;;;;;;;26.02;24.42;;;;;;;;;;5135460;27;20194;-90
2023/03/01 02:15:17;;;;;;;25.98;24.23;;;;;;;;;;5135708;27;20233;-89
2023/03/01 02:17:45;;;;;;;26.88;24.98;;;;;;;;;;5135907;27;20559;-89
2023/03/01 02:20:17;;;;;;;24.98;23.38;;;;;;;;;;5136049;27;20593;-89
2023/03/01 02:22:45;;;;;;;26.10;24.40;;;;;;;;;;5135616;27;20224;-89
2023/03/01 02:25:18;;;;;;;25.90;24.30;;;;;;;;;;5136129;27;20234;-89
2023/03/01 02:27:50;;;;;;;26.30;24.60;;;;;;;;;;5138753;27;20219;-89
2023/03/01 02:30:18;;;;;;;26.83;24.88;;;;;;;;;;5152198;27;20186;-89
2023/03/01 02:32:45;;;;;;;26.08;24.50;;;;;;;;;;5151133;27;20256;-89
2023/03/01 02:35:14;;;;;;;25.75;23.85;;;;;;;;;;5139155;27;20288;-90
2023/03/01 02:37:41;;;;;;;25.27;23.77;;;;;;;;;;5136176;27;20201;-89
2023/03/01 02:40:11;;;;;;;25.63;23.95;;;;;;;;;;5135916;27;20197;-89
2023/03/01 02:42:43;;;;;;;26.55;24.55;;;;;;;;;;5135248;27;20651;-89
2023/03/01 02:45:11;;;;;;;26.50;24.73;;;;;;;;;;5135781;27;20686;-88
2023/03/01 02:47:39;;;;;;;26.05;24.30;;;;;;;;;;5135769;27;20234;-89
2023/03/01 02:50:12;;;;;;;26.00;24.08;;;;;;;;;;5135759;27;20721;-89
2023/03/01 02:52:44;;;;;;;26.35;24.55;;;;;;;;;;5135063;27;20215;-89
2023/03/01 02:55:12;;;;;;;26.10;24.40;;;;;;;;;;5135162;27;20218;-90
2023/03/01 02:57:41;;;;;;;27.42;25.63;;;;;;;;;;5135383;28;20182;-90
2023/03/01 03:00:10;;;;;;;25.52;23.92;;;;;;;;;;5135540;28;20197;-89
2023/03/01 03:02:38;;;;;;;26.75;25.10;;;;;;;;;;5134900;28;20203;-89
2023/03/01 03:05:08;;;;;;;27.08;25.38;;;;;;;;;;5134981;28;20205;-89
2023/03/01 03:07:36;;;;;;;26.30;24.55;;;;;;;;;;5134785;27;20221;-89
2023/03/01 03:10:03;;;;;;;26.83;25.10;;;;;;;;;;5135149;28;20610;-89
2023/03/01 03:12:30;;;;;;;25.85;24.35;;;;;;;;;;5134845;28;20658;-89
2023/03/01 03:14:57;;;;;;;26.92;25.13;;;;;;;;;;5135545;27;20212;-89
2023/03/01 03:17:24;;;;;;;25.92;24.33;;;;;;;;;;5143297;27;20198;-89
2023/03/01 03:19:51;;;;;;;26.48;24.67;;;;;;;;;;5147847;27;20194;-89
2023/03/01 03:22:19;;;;;;;26.15;24.35;;;;;;;;;;5148321;27;20195;-90
2023/03/01 03:24:46;;;;;;;26.55;24.73;;;;;;;;;;5147850;27;20197;-89
2023/03/01 03:27:13;;;;;;;26.60;24.90;;;;;;;;;;5147396;27;20225;-89
2023/03/01 03:29:40;;;;;;;26.73;24.92;;;;;;;;;;5147639;27;20197;-89
2023/03/01 03:32:08;;;;;;;25.98;24.30;;;;;;;;;;5143053;27;20202;-89
2023/03/01 03:34:35;;;;;;;26.00;24.10;;;;;;;;;;5139109;27;20221;-89
2023/03/01 03:37:02;;;;;;;25.67;23.98;;;;;;;;;;5139041;27;20222;-89
2023/03/01 03:39:34;;;;;;;27.10;25.35;;;;;;;;;;5139167;27;20202;-89
2023/03/01 03:42:01;;;;;;;27.38;25.23;;;;;;;;;;5141534;27;20568;-90
2023/03/01 03:44:28;;;;;;;25.98;24.38;;;;;;;;;;5147269;27;20180;-89
2023/03/01 03:46:55;;;;;;;25.58;23.98;;;;;;;;;;5148721;27;20214;-90
2023/03/01 03:49:22;;;;;;;26.42;24.70;;;;;;;;;;5149102;27;20239;-89
2023/03/01 03:51:49;;;;;;;27.38;25.38;;;;;;;;;;5148093;27;20194;-90
2023/03/01 03:54:17;;;;;;;25.67;23.95;;;;;;;;;;5148917;27;20201;-89
2023/03/01 03:56:45;;;;;;;25.02;23.00;;;;;;;;;;5147606;27;20219;-89
2023/03/01 03:59:12;;;;;;;26.45;24.73;;;;;;;;;;5148426;27;20208;-89
2023/03/01 04:01:39;;;;;;;26.05;24.15;;;;;;;;;;5145831;27;20197;-90
2023/03/01 04:04:07;;;;;;;25.83;24.23;;;;;;;;;;5138734;27;20201;-89
2023/03/01 04:06:34;;;;;;;26.08;24.35;;;;;;;;;;5138243;27;20572;-90
2023/03/01 04:09:02;;;;;;;26.05;24.25;;;;;;;;;;5138407;27;20224;-90
2023/03/01 04:11:29;;;;;;;24.88;23.20;;;;;;;;;;5137995;27;20233;-88
2023/03/01 04:13:59;;;;;;;26.20;24.40;;;;;;;;;;5137639;27;20669;-89
2023/03/01 04:16:27;;;;;;;25.77;24.00;;;;;;;;;;5138291;27;20267;-88
2023/03/01 04:18:54;;;;;;;27.25;25.23;;;;;;;;;;5138406;27;20668;-88
2023/03/01 04:21:21;;;;;;;26.20;24.50;;;;;;;;;;5138063;27;20227;-89
2023/03/01 04:23:52;;;;;;;27.98;25.98;;;;;;;;;;5138139;27;20206;-88
2023/03/01 04:26:19;;;;;;;27.27;25.15;;;;;;;;;;5137456;27;20234;-87
2023/03/01 04:28:49;;;;;;;27.33;25.20;;;;;;;;;;5137633;27;20213;-88
2023/03/01 04:31:20;;;;;;;27.10;25.33;;;;;;;;;;5138016;27;20285;-89
2023/03/01 04:33:48;;;;;;;27.48;25.63;;;;;;;;;;5137834;27;20204;-88
2023/03/01 04:36:17;;;;;;;27.65;25.75;;;;;;;;;;5136908;27;20293;-88
2023/03/01 04:38:47;;;;;;;28.00;25.90;;;;;;;;;;5138063;27;20202;-88
2023/03/01 04:41:14;;;;;;;26.80;25.10;;;;;;;;;;5138189;27;20205;-87
2023/03/01 04:43:41;;;;;;;29.45;27.40;;;;;;;;;;5137058;27;20666;-88
2023/03/01 04:46:09;;;;;;;27.58;25.58;;;;;;;;;;5137621;27;20228;-88
2023/03/01 04:48:38;;;;;;;27.13;25.23;;;;;;;;;;5137720;27;20223;-88
2023/03/01 04:51:06;;;;;;;28.23;26.23;;;;;;;;;;5137958;27;20259;-88
2023/03/01 04:53:35;;;;;;;28.08;26.05;;;;;;;;;;5137131;27;20194;-88
2023/03/01 04:56:03;;;;;;;27.60;25.70;;;;;;;;;;5136794;27;20246;-88
2023/03/01 04:58:30;;;;;;;27.42;25.63;;;;;;;;;;5137479;27;20276;-88
2023/03/01 05:00:57;;;;;;;28.15;25.92;;;;;;;;;;5137777;27;20206;-88
2023/03/01 05:03:24;;;;;;;27.60;25.60;;;;;;;;;;5137149;27;20218;-88
2023/03/01 05:05:53;;;;;;;27.35;25.38;;;;;;;;;;5136899;27;20237;-88
2023/03/01 05:08:21;;;;;;;27.02;25.23;;;;;;;;;;5137132;27;20197;-87
2023/03/01 05:10:50;;;;;;;27.27;25.25;;;;;;;;;;5136999;27;20202;-88
2023/03/01 05:13:20;;;;;;;27.15;25.35;;;;;;;;;;5136405;27;20267;-88
2023/03/01 05:15:48;;;;;;;26.35;24.55;;;;;;;;;;5136987;27;20244;-89
2023/03/01 05:18:15;;;;;;;25.75;23.95;;;;;;;;;;5136442;27;20284;-88
2023/03/01 05:20:42;;;;;;;26.55;24.75;;;;;;;;;;5137081;27;20280;-88
2023/03/01 05:23:10;;;;;;;27.25;25.23;;;;;;;;;;5136357;27;20610;-88
2023/03/01 05:25:46;;;;;;;26.38;24.55;;;;;;;;;;5136875;27;20210;-88
2023/03/01 05:28:13;;;;;;;26.85;24.67;;;;;;;;;;5136395;27;20278;-88
2023/03/01 05:30:41;;;;;;;27.20;25.20;;;;;;;;;;5136923;27;20228;-88
2023/03/01 05:33:13;;;;;;;26.20;24.30;;;;;;;;;;5136462;27;20248;-88
2023/03/01 05:35:39;;;;;;;28.10;26.00;;;;;;;;;;5137337;27;20260;-88
2023/03/01 05:38:06;;;;;;;27.30;25.45;;;;;;;;;;5136482;27;20205;-87
2023/03/01 05:40:35;;;;;;;26.25;24.55;;;;;;;;;;5136566;27;20643;-88
2023/03/01 05:43:04;;;;;;;25.80;24.10;;;;;;;;;;5136557;27;20226;-89
2023/03/01 05:45:32;;;;;;;27.48;25.50;;;;;;;;;;5136591;27;20226;-89
2023/03/01 05:48:00;;;;;;;26.63;24.70;;;;;;;;;;5136446;27;20221;-89
2023/03/01 05:50:28;;;;;;;25.70;23.92;;;;;;;;;;5136511;27;20259;-89
2023/03/01 05:52:58;;;;;;;27.20;25.20;;;;;;;;;;5135915;27;20201;-89
2023/03/01 05:55:25;;;;;;;25.67;23.88;;;;;;;;;;5135802;27;20700;-89
2023/03/01 05:57:54;;;;;;;25.48;23.33;;;;;;;;;;5136144;27;20197;-88
2023/03/01 06:00:22;;;;;;;27.25;25.23;;;;;;;;;;5136092;27;20684;-89
2023/03/01 06:02:50;;;;;;;26.80;23.92;;;;;;;;;;5135874;27;20295;-89
2023/03/01 06:05:17;;;;;;;26.50;24.25;;;;;;;;;;5135828;27;20317;-89
2023/03/01 06:07:44;;;;;;;25.95;24.05;;;;;;;;;;5135801;27;20181;-89
2023/03/01 06:10:11;;;;;;;25.25;23.52;;;;;;;;;;5135965;27;20654;-89
2023/03/01 06:12:39;;;;;;;25.42;23.73;;;;;;;;;;5135196;27;20659;-89
2023/03/01 06:15:09;;;;;;;25.55;23.70;;;;;;;;;;5135755;27;20197;-90
2023/03/01 06:17:37;;;;;;;26.63;24.45;;;;;;;;;;5135458;27;20214;-89
2023/03/01 06:20:04;;;;;;;25.33;23.52;;;;;;;;;;5135951;27;20232;-89
2023/03/01 06:22:31;;;;;;;26.42;24.33;;;;;;;;;;5135422;27;20266;-89
2023/03/01 06:24:58;;;;;;;26.40;24.17;;;;;;;;;;5136097;27;20209;-86
2023/03/01 06:27:25;;;;;;;27.60;25.35;;;;;;;;;;5136874;27;20205;-86
2023/03/01 06:29:52;;;;;;;25.63;23.73;;;;;;;;;;5138125;27;20226;-86
2023/03/01 06:32:21;;;;;;;27.05;24.90;;;;;;;;;;5137185;27;20610;-86
2023/03/01 06:35:07;;;;;;;27.33;24.92;;;;;;;;;;5137398;27;20251;-86
2023/03/01 06:37:35;;;;;;;26.67;24.75;;;;;;;;;;5137818;27;20236;-86
2023/03/01 06:40:07;;;;;;;25.23;23.20;;;;;;;;;;5138232;27;20200;-86
2023/03/01 06:42:34;;;;;;;25.90;24.00;;;;;;;;;;5137254;27;20233;-85
2023/03/01 06:45:00;;;;;;;26.10;24.27;;;;;;;;;;5153126;27;20190;-86
2023/03/01 06:47:29;;;;;;;26.50;24.40;;;;;;;;;;5155874;27;20223;-86
2023/03/01 06:49:56;;;;;;;26.23;24.38;;;;;;;;;;5151770;27;20315;-86
2023/03/01 06:52:23;;;;;;;26.48;24.65;;;;;;;;;;5141926;27;20279;-86
2023/03/01 06:54:50;;;;;;;26.45;24.52;;;;;;;;;;5141726;28;20536;-87
2023/03/01 06:57:17;;;;;;;27.30;25.08;;;;;;;;;;5140432;28;20213;-86
2023/03/01 06:59:44;;;;;;;27.83;25.63;;;;;;;;;;5140589;28;20200;-85
2023/03/01 07:02:12;;;;;;;27.55;25.55;;;;;;;;;;5140184;28;20247;-86
2023/03/01 07:04:40;;;;;;;27.15;25.15;;;;;;;;;;5140251;28;20297;-86
2023/03/01 07:07:07;;;;;;;27.05;24.83;;;;;;;;;;5139246;28;20214;-85
2023/03/01 07:09:34;;;;;;;27.65;25.50;;;;;;;;;;5138961;28;20270;-86
2023/03/01 07:12:01;;;;;;;27.55;25.45;;;;;;;;;;5137679;28;20222;-86
2023/03/01 07:14:29;;;;;;;27.42;25.23;;;;;;;;;;5139214;28;20209;-86
2023/03/01 07:16:56;;;;;;;28.95;26.45;;;;;;;;;;5138772;28;20615;-86
2023/03/01 07:19:23;;;;;;;27.30;25.20;;;;;;;;;;5139162;28;20203;-86
2023/03/01 07:21:51;;;;;;;27.92;25.73;;;;;;;;;;5138345;28;20258;-86
2023/03/01 07:24:18;;;;;;;28.92;26.70;;;;;;;;;;5138099;28;20205;-86
2023/03/01 07:26:45;;;;;;;26.90;24.70;;;;;;;;;;5137909;28;20603;-85
2023/03/01 07:29:12;;;;;;;28.38;25.70;;;;;;;;;;5139249;28;20216;-85
2023/03/01 07:31:39;;;;;;;28.00;25.80;;;;;;;;;;5138116;28;20267;-85
2023/03/01 07:34:06;;;;;;;29.40;27.00;;;;;;;;;;5138332;28;20200;-85
2023/03/01 07:36:33;;;;;;;29.70;27.40;;;;;;;;;;5138722;28;20743;-85
2023/03/01 07:39:02;;;;;;;27.30;25.15;;;;;;;;;;5139037;28;20203;-85
2023/03/01 07:41:30;;;;;;;27.55;25.55;;;;;;;;;;5138208;28;20226;-85
2023/03/01 07:43:57;;;;;;;28.45;26.35;;;;;;;;;;5138254;28;20208;-87
2023/03/01 07:46:24;;;;;;;28.27;26.05;;;;;;;;;;5137453;28;20617;-85
2023/03/01 07:48:51;;;;;;;28.92;26.73;;;;;;;;;;5138714;28;20207;-85
2023/03/01 07:51:18;;;;;;;28.75;26.38;;;;;;;;;;5138538;28;20199;-86
2023/03/01 07:53:47;;;;;;;30.10;27.70;;;;;;;;;;5138372;28;20192;-84
2023/03/01 07:56:17;;;;;;;28.98;26.58;;;;;;;;;;5138753;28;20222;-85
2023/03/01 07:58:44;;;;;;;29.27;27.10;;;;;;;;;;5138881;28;20259;-84
2023/03/01 08:01:12;;;;;;;28.48;26.38;;;;;;;;;;5139746;27;20588;-86
2023/03/01 08:03:39;;;;;;;27.08;25.08;;;;;;;;;;5142550;27;20212;-84
2023/03/01 08:06:08;;;;;;;28.42;26.13;;;;;;;;;;5141814;27;20224;-85
2023/03/01 08:08:35;;;;;;;28.83;26.63;;;;;;;;;;5142315;27;20246;-84
2023/03/01 08:11:03;;;;;;;27.80;25.70;;;;;;;;;;5141661;27;20200;-85
2023/03/01 08:13:32;;;;;;;28.23;26.13;;;;;;;;;;5144481;27;20201;-84
2023/03/01 08:16:02;;;;;;;28.75;26.65;;;;;;;;;;5143139;27;20212;-86
2023/03/01 08:18:29;;;;;;;27.75;25.55;;;;;;;;;;5146413;27;20203;-85
2023/03/01 08:20:57;;;;;;;27.52;25.42;;;;;;;;;;5145252;27;20219;-84
2023/03/01 08:23:25;;;;;;;27.92;25.92;;;;;;;;;;5145828;27;20207;-85
2023/03/01 08:25:52;;;;;;;28.85;26.75;;;;;;;;;;5145216;27;20285;-86
2023/03/01 08:28:19;;;;;;;27.45;25.55;;;;;;;;;;5146770;27;20384;-85
2023/03/01 08:30:48;;;;;;;29.85;27.45;;;;;;;;;;5144844;27;20206;-86
2023/03/01 08:33:15;;;;;;;27.27;25.25;;;;;;;;;;5144241;27;20724;-80
2023/03/01 08:35:42;;;;;;;29.08;26.77;;;;;;;;;;5144906;27;20668;-83
2023/03/01 08:38:09;;;;;;;29.17;26.85;;;;;;;;;;5145205;27;20229;-85
2023/03/01 08:40:36;;;;;;;29.35;26.98;;;;;;;;;;5145561;27;20254;-85
2023/03/01 08:43:03;;;;;;;27.85;25.85;;;;;;;;;;5143513;27;20314;-85
2023/03/01 08:45:30;;;;;;;22.65;21.20;;;;;;;;;;5145262;27;20216;-85
2023/03/01 08:47:58;;;;;;;29.88;27.20;;;;;;;;;;5146092;27;20205;-85
2023/03/01 08:50:25;;;;;;;28.38;26.27;;;;;;;;;;5145265;27;20218;-85
2023/03/01 08:52:52;;;;;;;28.60;26.38;;;;;;;;;;5145231;27;20204;-86
2023/03/01 08:55:19;;;;;;;27.42;25.25;;;;;;;;;;5144442;27;20277;-84
2023/03/01 08:57:46;;;;;;;30.52;27.88;;;;;;;;;;5146067;27;20246;-85
2023/03/01 09:00:15;;;;;;;27.45;25.35;;;;;;;;;;5145969;27;20200;-85
2023/03/01 09:02:42;;;;;;;29.95;27.60;;;;;;;;;;5145551;27;20272;-85
2023/03/01 09:05:11;;;;;;;29.52;26.85;;;;;;;;;;5145544;27;20224;-85
2023/03/01 09:07:38;;;;;;;31.08;28.63;;;;;;;;;;5146265;27;20197;-85
2023/03/01 09:10:05;;;;;;;32.17;29.08;;;;;;;;;;5146098;27;20242;-85
2023/03/01 09:12:32;;;;;;;31.15;28.75;;;;;;;;;;5143570;27;20220;-85
2023/03/01 09:14:59;;;;;;;29.67;27.58;;;;;;;;;;5146379;27;20217;-85
2023/03/01 09:17:26;;;;;;;29.73;27.63;;;;;;;;;;5145703;27;20680;-84
2023/03/01 09:19:53;;;;;;;28.05;25.95;;;;;;;;;;5147033;27;20317;-84
2023/03/01 09:22:21;;;;;;;28.65;26.55;;;;;;;;;;5145845;27;20323;-85
2023/03/01 09:24:48;;;;;;;24.98;23.48;;;;;;;;;;5145965;27;20269;-85
2023/03/01 09:27:18;;;;;;;27.48;25.42;;;;;;;;;;5145574;27;20209;-85
2023/03/01 09:29:45;;;;;;;27.70;25.70;;;;;;;;;;5145516;27;20716;-85
2023/03/01 09:32:12;;;;;;;27.67;25.77;;;;;;;;;;5144647;27;20196;-85
2023/03/01 09:37:21;;;;;;;27.98;25.88;;;;;;;;;;5144579;27;20197;-84
2023/03/01 09:39:48;;;;;;;27.13;25.30;;;;;;;;;;5145050;27;20204;-85
2023/03/01 09:42:15;;;;;;;28.33;26.15;;;;;;;;;;5143736;27;20233;-83
2023/03/01 09:44:46;;;;;;;26.52;24.58;;;;;;;;;;5145884;27;20299;-85
2023/03/01 09:47:16;;;;;;;29.20;27.00;;;;;;;;;;5145919;27;20189;-85
2023/03/01 09:49:48;;;;;;;28.65;26.80;;;;;;;;;;5144802;27;20223;-85
2023/03/01 09:52:21;;;;;;;30.15;27.85;;;;;;;;;;5144567;27;20238;-84
2023/03/01 09:54:57;;;;;;;26.67;24.88;;;;;;;;;;5141475;27;20208;-86
2023/03/01 09:57:28;;;;;;;26.55;24.85;;;;;;;;;;5140942;27;20208;-84
2023/03/01 10:00:05;;;;;;;26.58;24.85;;;;;;;;;;5141231;27;20197;-83
2023/03/01 10:02:36;;;;;;;28.95;26.80;;;;;;;;;;5140891;27;20204;-82
2023/03/01 10:05:10;;;;;;;26.98;25.13;;;;;;;;;;5141343;27;20249;-83
2023/03/01 10:07:42;;;;;;;24.75;23.15;;;;;;;;;;5140040;27;20260;-82
2023/03/01 10:10:16;;;;;;;25.08;23.52;;;;;;;;;;5140908;27;20628;-83
2023/03/01 10:12:44;;;;;;;28.13;26.02;;;;;;;;;;5140498;27;20181;-83
2023/03/01 10:15:15;;;;;;;26.45;24.67;;;;;;;;;;5140950;27;20266;-83
2023/03/01 10:17:45;;;;;;;28.65;26.25;;;;;;;;;;5140739;27;20239;-82
2023/03/01 10:20:18;;;;;;;28.15;25.95;;;;;;;;;;5140718;27;20204;-83
2023/03/01 10:22:50;;;;;;;29.45;27.17;;;;;;;;;;5141118;27;20185;-83
2023/03/01 10:25:20;;;;;;;27.63;25.52;;;;;;;;;;5140862;27;20223;-83
2023/03/01 10:27:50;;;;;;;26.55;24.75;;;;;;;;;;5141388;27;20544;-83
2023/03/01 10:30:19;;;;;;;26.38;24.48;;;;;;;;;;5141976;27;20687;-82
2023/03/01 10:32:48;;;;;;;30.13;27.45;;;;;;;;;;5141185;27;20273;-83
2023/03/01 10:35:19;;;;;;;27.50;25.20;;;;;;;;;;5141460;27;20228;-83
2023/03/01 10:37:59;;;;;;;26.20;24.60;;;;;;;;;;5141328;27;20209;-83
2023/03/01 10:40:27;;;;;;;29.50;27.30;;;;;;;;;;5142020;27;20728;-82
2023/03/01 10:42:54;;;;;;;26.27;24.27;;;;;;;;;;5140131;27;20281;-81
2023/03/01 10:45:32;;;;;;;29.48;27.15;;;;;;;;;;5140120;27;20249;-82
2023/03/01 10:48:13;;;;;;;28.35;26.10;;;;;;;;;;5140482;27;20192;-82
2023/03/01 10:50:41;;;;;;;28.85;26.80;;;;;;;;;;5140949;27;20234;-82
2023/03/01 10:53:21;;;;;;;28.63;26.63;;;;;;;;;;5140113;27;20208;-81
2023/03/01 10:55:57;;;;;;;30.77;28.75;;;;;;;;;;5140603;27;20253;-83
2023/03/01 10:58:24;;;;;;;29.27;26.80;;;;;;;;;;5140802;27;20204;-81
2023/03/01 11:00:53;;;;;;;30.20;28.10;;;;;;;;;;5140757;27;20205;-82
2023/03/01 11:03:22;;;;;;;28.98;27.05;;;;;;;;;;5139950;28;20230;-82
2023/03/01 11:05:57;;;;;;;29.13;27.15;;;;;;;;;;5141440;28;20260;-82
2023/03/01 11:08:31;;;;;;;28.95;27.25;;;;;;;;;;5142326;28;20260;-83
2023/03/01 11:11:07;;;;;;;29.00;27.30;;;;;;;;;;5146825;28;20220;-83
2023/03/01 11:13:35;;;;;;;26.58;24.65;;;;;;;;;;5155232;28;20200;-83
2023/03/01 11:16:03;;;;;;;26.50;24.80;;;;;;;;;;5156935;28;20197;-83
2023/03/01 11:18:31;;;;;;;23.00;21.58;;;;;;;;;;5145891;28;20196;-83
2023/03/01 11:20:59;;;;;;;25.48;23.67;;;;;;;;;;5142849;28;20197;-83
2023/03/01 11:23:27;;;;;;;24.02;22.45;;;;;;;;;;5141582;28;20216;-82
2023/03/01 11:25:56;;;;;;;25.42;23.63;;;;;;;;;;5141446;28;20619;-83
2023/03/01 11:28:25;;;;;;;23.33;21.92;;;;;;;;;;5142654;28;20197;-83
2023/03/01 11:30:55;;;;;;;24.00;22.40;;;;;;;;;;5142350;28;20281;-83
2023/03/01 11:33:25;;;;;;;24.23;22.60;;;;;;;;;;5141725;28;20291;-82
2023/03/01 11:35:56;;;;;;;25.00;23.50;;;;;;;;;;5142143;27;20228;-83
2023/03/01 11:38:24;;;;;;;24.00;22.50;;;;;;;;;;5146610;27;20288;-83
2023/03/01 11:40:53;;;;;;;25.45;23.75;;;;;;;;;;5146040;27;20200;-83
2023/03/01 11:43:24;;;;;;;25.48;23.50;;;;;;;;;;5145243;27;20570;-83
2023/03/01 11:45:58;;;;;;;25.42;23.63;;;;;;;;;;5144378;27;20290;-80
2023/03/01 11:48:39;;;;;;;23.92;22.48;;;;;;;;;;5146196;27;20250;-82
2023/03/01 11:51:09;;;;;;;25.92;24.17;;;;;;;;;;5131830;27;20251;-83
2023/03/01 11:53:49;;;;;;;26.13;24.33;;;;;;;;;;5145031;27;20193;-83
2023/03/01 11:56:22;;;;;;;25.27;23.58;;;;;;;;;;5143388;27;20216;-83
2023/03/01 11:59:00;;;;;;;24.98;23.38;;;;;;;;;;5143410;27;20194;-82
2023/03/01 12:01:34;;;;;;;26.15;24.42;;;;;;;;;;5143712;27;20192;-82
2023/03/01 12:04:09;;;;;;;25.63;23.92;;;;;;;;;;5143044;27;20209;-81
2023/03/01 12:06:41;;;;;;;26.08;24.17;;;;;;;;;;5143151;27;20221;-81
2023/03/01 12:09:16;;;;;;;25.95;23.98;;;;;;;;;;5143693;27;20190;-81
2023/03/01 12:11:50;;;;;;;25.48;23.67;;;;;;;;;;5142943;27;20748;-82
2023/03/01 12:14:27;;;;;;;25.13;23.52;;;;;;;;;;5142966;27;20301;-81
2023/03/01 12:17:02;;;;;;;25.10;23.60;;;;;;;;;;5142042;27;20219;-82
2023/03/01 12:19:39;;;;;;;26.05;24.33;;;;;;;;;;5142524;27;20273;-86
2023/03/01 12:22:20;;;;;;;25.77;23.83;;;;;;;;;;5125815;27;20212;-90
2023/03/01 12:24:55;;;;;;;25.33;23.63;;;;;;;;;;5122732;27;20209;-80
2023/03/01 12:27:32;;;;;;;26.17;24.38;;;;;;;;;;5128686;27;20200;-88
2023/03/01 12:30:05;;;;;;;25.05;23.45;;;;;;;;;;5141272;27;20205;-85
2023/03/01 12:32:41;;;;;;;25.23;23.63;;;;;;;;;;5141958;27;20205;-85
2023/03/01 12:35:17;;;;;;;25.67;23.73;;;;;;;;;;5153128;27;20280;-83
2023/03/01 12:37:53;;;;;;;24.40;23.00;;;;;;;;;;5146304;27;20212;-82
2023/03/01 12:40:26;;;;;;;25.50;23.80;;;;;;;;;;5144155;27;20671;-83
2023/03/01 12:42:58;;;;;;;27.05;24.98;;;;;;;;;;5143000;27;20205;-83
2023/03/01 12:45:34;;;;;;;25.35;23.65;;;;;;;;;;5143567;27;20270;-84
2023/03/01 12:48:10;;;;;;;25.88;24.17;;;;;;;;;;5143666;27;20547;-82
2023/03/01 12:50:41;;;;;;;26.23;24.23;;;;;;;;;;5142644;27;20205;-81
2023/03/01 12:53:14;;;;;;;25.60;23.90;;;;;;;;;;5140935;27;20269;-82
2023/03/01 12:55:44;;;;;;;25.55;23.67;;;;;;;;;;5141158;27;20229;-81
2023/03/01 12:58:20;;;;;;;26.85;24.95;;;;;;;;;;5141539;27;20201;-82
2023/03/01 13:00:54;;;;;;;23.70;22.30;;;;;;;;;;5141661;27;20554;-82
2023/03/01 13:03:27;;;;;;;27.27;25.08;;;;;;;;;;5141745;27;20239;-82
2023/03/01 13:06:01;;;;;;;25.77;24.02;;;;;;;;;;5141311;27;20216;-81
2023/03/01 13:08:32;;;;;;;25.10;23.40;;;;;;;;;;5141404;27;20205;-82
2023/03/01 13:11:01;;;;;;;25.85;24.15;;;;;;;;;;5141636;27;20586;-81
2023/03/01 13:13:29;;;;;;;26.45;24.45;;;;;;;;;;5140612;27;20206;-81
2023/03/01 13:15:56;;;;;;;25.63;23.92;;;;;;;;;;5141908;27;20217;-81
2023/03/01 13:18:32;;;;;;;25.48;23.67;;;;;;;;;;5145745;27;20205;-82
2023/03/01 13:21:00;;;;;;;25.95;24.35;;;;;;;;;;5149288;27;20197;-83
2023/03/01 13:23:29;;;;;;;24.88;23.30;;;;;;;;;;5149930;27;20189;-82
2023/03/01 13:26:05;;;;;;;26.95;25.15;;;;;;;;;;5154574;27;20209;-82
2023/03/01 13:28:42;;;;;;;25.48;24.08;;;;;;;;;;5142735;27;20588;-81
2023/03/01 13:31:10;;;;;;;24.92;23.42;;;;;;;;;;5141389;27;20596;-82
2023/03/01 13:33:45;;;;;;;25.08;23.42;;;;;;;;;;5141133;27;20238;-82
2023/03/01 13:36:13;;;;;;;25.60;24.10;;;;;;;;;;5141358;27;20220;-81
2023/03/01 13:38:46;;;;;;;25.50;23.90;;;;;;;;;;5140450;27;20722;-80
2023/03/01 13:41:14;;;;;;;25.60;23.90;;;;;;;;;;5142566;27;20274;-86
2023/03/01 13:43:43;;;;;;;24.15;22.65;;;;;;;;;;5143418;27;20227;-84
2023/03/01 13:46:14;;;;;;;24.90;23.20;;;;;;;;;;5145076;27;20217;-85
2023/03/01 13:48:41;;;;;;;24.17;22.60;;;;;;;;;;5145302;27;20193;-84
2023/03/01 13:51:11;;;;;;;24.10;22.60;;;;;;;;;;5143320;27;20496;-84
2023/03/01 13:53:41;;;;;;;24.38;22.67;;;;;;;;;;5142681;27;20268;-85
2023/03/01 13:56:09;;;;;;;25.10;23.40;;;;;;;;;;5143599;27;20221;-85
2023/03/01 13:58:46;;;;;;;24.33;22.80;;;;;;;;;;5142724;27;20205;-85
2023/03/01 14:01:21;;;;;;;24.55;23.05;;;;;;;;;;5143478;27;20230;-85
2023/03/01 14:03:49;;;;;;;24.00;22.30;;;;;;;;;;5145849;27;20209;-85
2023/03/01 14:06:18;;;;;;;23.80;22.20;;;;;;;;;;5146100;27;20224;-84
2023/03/01 14:08:46;;;;;;;24.48;22.95;;;;;;;;;;5142779;27;20447;-84
2023/03/01 14:11:32;;;;;;;24.95;23.40;;;;;;;;;;5143271;27;20222;-85
2023/03/01 14:14:05;;;;;;;25.33;23.70;;;;;;;;;;5142094;27;20654;-85
2023/03/01 14:16:38;;;;;;;24.20;22.70;;;;;;;;;;5145405;27;20225;-85
2023/03/01 14:19:12;;;;;;;24.80;23.30;;;;;;;;;;5146085;27;20406;-84
2023/03/01 14:21:41;;;;;;;23.35;21.85;;;;;;;;;;5143557;27;20197;-86
2023/03/01 14:24:16;;;;;;;24.77;23.23;;;;;;;;;;5144884;27;20604;-84
2023/03/01 14:26:43;;;;;;;24.60;23.10;;;;;;;;;;5146310;27;20221;-84
2023/03/01 14:29:24;;;;;;;25.08;23.52;;;;;;;;;;5145362;27;20193;-85
2023/03/01 14:31:52;;;;;;;25.05;23.25;;;;;;;;;;5144398;27;20220;-84